Armington, Montana
Current Conditions -  °F | °C
As of 12:56 PM on Thursday 23 Oct 2014 (Local Time) from KGFA Reporting Station
Clear Clear  
Wind Chill: 59°   Ceiling: Unl
Heat Index: 59°   Visibility: 10mi
Dew Point: 38°   Wind: 23mph
Humidity: 47%   Direction: 230°SW
Pressure: 29.82"   Gusts: 30mph
Location:  47.3298°N, 110.893°W
Report Text: KGFA 231856Z AUTO 23020G26KT 10SM CLR 15/04 A2982 RMK AO2 PK WND 23027/29 SLP101 T01490036
Loading
Personal Weather Stations






























Interactive Weather Map
Tropical Storm Tracking
New forecast layout! Learn more

10-Day Weather Forecast

Advertisements
Track Severe Weather on mobile